createdAt,value
2022-12-12T00:01:57.498Z,100167.38
2022-12-12T00:04:47.502Z,100162.41
2022-12-12T00:07:22.763Z,100167.16
2022-12-12T00:09:51.938Z,100157.91
2022-12-12T00:12:25.456Z,100161.50
2022-12-12T00:14:59.191Z,100167.41
2022-12-12T00:18:15.382Z,100166.72
2022-12-12T00:20:23.933Z,100171.69
2022-12-12T00:23:05.893Z,100168.38
2022-12-12T00:25:44.325Z,100173.34
2022-12-12T00:28:17.809Z,100166.53
2022-12-12T00:31:00.135Z,100160.03
2022-12-12T00:33:44.894Z,100166.22
2022-12-12T00:36:15.785Z,100162.78
2022-12-12T00:38:58.207Z,100161.25
2022-12-12T00:41:34.172Z,100163.97
2022-12-12T00:44:03.490Z,100151.53
2022-12-12T00:46:49.195Z,100163.63
2022-12-12T00:49:30.123Z,100172.63
2022-12-12T00:52:16.549Z,100178.69
2022-12-12T00:55:01.118Z,100174.50
2022-12-12T00:57:40.540Z,100173.81
2022-12-12T01:00:26.395Z,100184.97
2022-12-12T01:03:11.951Z,100172.63
2022-12-12T01:06:08.446Z,100170.19
2022-12-12T01:09:09.417Z,100168.09
2022-12-12T01:11:45.839Z,100175.44
2022-12-12T01:14:37.139Z,100177.66
2022-12-12T01:17:13.943Z,100177.09
2022-12-12T01:19:44.475Z,100176.63
2022-12-12T01:22:16.723Z,100173.16
2022-12-12T01:24:47.295Z,100182.09
2022-12-12T01:27:16.662Z,100183.50
2022-12-12T01:29:45.699Z,100181.91
2022-12-12T01:32:16.281Z,100189.00
2022-12-12T01:34:45.392Z,100182.94
2022-12-12T01:37:13.007Z,100184.25
2022-12-12T01:39:40.630Z,100188.13
2022-12-12T01:42:14.001Z,100186.47
2022-12-12T01:44:45.781Z,100181.25
2022-12-12T01:47:14.579Z,100196.44
2022-12-12T01:49:45.602Z,100184.13
2022-12-12T01:52:16.199Z,100186.47
2022-12-12T01:54:46.625Z,100186.38
2022-12-12T01:57:22.185Z,100187.59
2022-12-12T01:59:50.233Z,100185.00
2022-12-12T02:02:19.596Z,100186.63
2022-12-12T02:04:47.238Z,100187.22
2022-12-12T02:07:15.375Z,100188.28
2022-12-12T02:09:43.069Z,100183.91
2022-12-12T02:12:15.890Z,100186.25
2022-12-12T02:14:46.834Z,100175.38
2022-12-12T02:17:36.957Z,100193.03
2022-12-12T02:20:39.536Z,100194.44
2022-12-12T02:23:43.280Z,100190.28
2022-12-12T02:26:36.557Z,100192.91
2022-12-12T02:29:25.875Z,100189.34
2022-12-12T02:32:00.904Z,100188.72
2022-12-12T02:34:34.513Z,100192.84
2022-12-12T02:37:07.928Z,100201.16
2022-12-12T02:39:41.177Z,100193.44
2022-12-12T02:42:12.317Z,100193.34
2022-12-12T02:44:44.387Z,100185.06
2022-12-12T02:47:16.860Z,100197.06
2022-12-12T02:49:48.584Z,100198.00
2022-12-12T02:52:18.458Z,100199.72
2022-12-12T02:54:46.444Z,100197.94
2022-12-12T02:57:17.755Z,100202.13
2022-12-12T02:59:51.108Z,100204.88
2022-12-12T03:02:50.963Z,100201.06
2022-12-12T03:05:47.456Z,100203.97
2022-12-12T03:08:28.806Z,100207.00
2022-12-12T03:10:58.168Z,100209.38
2022-12-12T03:13:35.084Z,100206.47
2022-12-12T03:16:15.733Z,100199.34
2022-12-12T03:18:52.986Z,100202.19
2022-12-12T03:21:23.481Z,100204.06
2022-12-12T03:23:52.487Z,100205.06
2022-12-12T03:26:23.052Z,100208.41
2022-12-12T03:28:58.960Z,100206.47
2022-12-12T03:31:29.951Z,100206.22
2022-12-12T03:34:00.258Z,100207.66
2022-12-12T03:36:29.689Z,100204.31
2022-12-12T03:39:04.089Z,100202.59
2022-12-12T03:41:41.422Z,100207.16
2022-12-12T03:44:14.725Z,100201.91
2022-12-12T03:46:46.741Z,100212.63
2022-12-12T03:49:23.887Z,100197.19
2022-12-12T03:51:56.876Z,100195.50
2022-12-12T03:54:27.288Z,100195.47
2022-12-12T03:57:02.035Z,100193.44
2022-12-12T03:59:37.620Z,100197.72
2022-12-12T04:02:11.162Z,100199.25
2022-12-12T04:04:42.939Z,100204.94
2022-12-12T04:07:16.727Z,100207.69
2022-12-12T04:10:01.949Z,100214.81
2022-12-12T04:12:53.795Z,100210.03
2022-12-12T04:15:32.810Z,100218.50
2022-12-12T04:18:12.869Z,100211.63
2022-12-12T04:21:03.701Z,100215.84
2022-12-12T04:23:35.623Z,100215.28
2022-12-12T04:26:30.808Z,100222.88
2022-12-12T04:29:04.410Z,100228.47
2022-12-12T04:31:41.780Z,100226.53
2022-12-12T04:34:19.068Z,100229.19
2022-12-12T04:36:49.341Z,100233.59
2022-12-12T04:41:16.536Z,100231.78
2022-12-12T04:42:43.840Z,100239.47
2022-12-12T04:45:18.681Z,100234.34
2022-12-12T04:47:48.400Z,100237.63
2022-12-12T04:50:18.717Z,100244.78
2022-12-12T04:52:49.514Z,100236.00
2022-12-12T04:55:24.690Z,100247.03
2022-12-12T04:57:59.943Z,100233.84
2022-12-12T05:00:38.667Z,100250.19
2022-12-12T05:03:10.958Z,100237.13
2022-12-12T05:05:42.096Z,100248.50
2022-12-12T05:08:15.736Z,100243.97
2022-12-12T05:10:43.877Z,100245.63
2022-12-12T05:13:16.420Z,100246.06
2022-12-12T05:15:45.129Z,100256.34
2022-12-12T05:18:13.301Z,100244.75
2022-12-12T05:20:41.028Z,100249.16
2022-12-12T05:23:08.609Z,100253.88
2022-12-12T05:25:37.571Z,100251.75
2022-12-12T05:28:05.169Z,100254.47
2022-12-12T05:30:32.853Z,100258.53
2022-12-12T05:33:00.427Z,100259.25
2022-12-12T05:35:28.386Z,100257.47
2022-12-12T05:37:56.502Z,100253.28
2022-12-12T05:40:24.265Z,100260.47
2022-12-12T05:42:53.187Z,100257.41
2022-12-12T05:45:20.826Z,100264.28
2022-12-12T05:47:48.586Z,100258.34
2022-12-12T05:50:16.119Z,100264.41
2022-12-12T05:52:43.902Z,100255.03
2022-12-12T05:55:11.700Z,100258.09
2022-12-12T05:57:39.427Z,100261.66
2022-12-12T06:00:10.129Z,100268.34
2022-12-12T06:02:37.846Z,100268.22
2022-12-12T06:05:06.092Z,100267.31
2022-12-12T06:07:33.559Z,100268.00
2022-12-12T06:10:01.097Z,100264.78
2022-12-12T06:12:28.633Z,100268.91
2022-12-12T06:14:56.116Z,100266.72
2022-12-12T06:17:29.708Z,100275.94
2022-12-12T06:20:00.601Z,100271.78
2022-12-12T06:22:28.140Z,100277.47
2022-12-12T06:24:55.704Z,100268.94
2022-12-12T06:27:23.350Z,100275.00
2022-12-12T06:29:51.154Z,100275.00
2022-12-12T06:32:18.812Z,100277.75
2022-12-12T06:34:47.666Z,100285.47
2022-12-12T06:37:17.393Z,100284.75
2022-12-12T06:39:45.314Z,100282.03
2022-12-12T06:42:12.840Z,100289.16
2022-12-12T06:44:40.396Z,100284.50
2022-12-12T06:47:07.959Z,100288.56
2022-12-12T06:49:35.616Z,100288.56
2022-12-12T06:52:04.580Z,100299.94
2022-12-12T06:54:32.162Z,100295.09
2022-12-12T06:56:59.787Z,100296.50
2022-12-12T06:59:29.394Z,100296.75
2022-12-12T07:01:57.109Z,100291.97
2022-12-12T07:04:25.766Z,100306.22
2022-12-12T07:06:53.308Z,100302.66
2022-12-12T07:09:22.198Z,100301.50
2022-12-12T07:11:49.760Z,100304.34
2022-12-12T07:14:17.253Z,100312.06
2022-12-12T07:16:44.746Z,100318.00
2022-12-12T07:19:12.331Z,100316.44
2022-12-12T07:21:39.904Z,100314.56
2022-12-12T07:24:07.723Z,100314.91
2022-12-12T07:26:36.697Z,100320.16
2022-12-12T07:29:05.284Z,100321.22
2022-12-12T07:31:32.900Z,100318.00
2022-12-12T07:34:00.438Z,100312.91
2022-12-12T07:36:27.922Z,100324.69
2022-12-12T07:38:55.459Z,100320.75
2022-12-12T07:41:22.997Z,100329.16
2022-12-12T07:43:52.313Z,100331.13
2022-12-12T07:46:22.185Z,100330.91
2022-12-12T07:48:50.067Z,100327.84
2022-12-12T07:51:17.928Z,100338.69
2022-12-12T07:53:45.804Z,100335.72
2022-12-12T07:56:15.395Z,100339.63
2022-12-12T07:58:43.131Z,100342.59
2022-12-12T08:01:14.867Z,100346.66
2022-12-12T08:03:43.218Z,100350.34
2022-12-12T08:06:10.841Z,100344.88
2022-12-12T08:08:38.388Z,100358.63
2022-12-12T08:11:07.433Z,100354.38
2022-12-12T08:13:36.486Z,100351.28
2022-12-12T08:16:05.395Z,100355.06
2022-12-12T08:18:34.713Z,100361.59
2022-12-12T08:21:02.212Z,100363.63
2022-12-12T08:23:29.720Z,100367.19
2022-12-12T08:25:57.542Z,100370.41
2022-12-12T08:28:25.072Z,100371.97
2022-12-12T08:30:52.680Z,100377.75
2022-12-12T08:33:20.240Z,100375.84
2022-12-12T08:35:49.617Z,100376.63
2022-12-12T08:38:17.146Z,100372.19
2022-12-12T08:40:44.743Z,100367.75
2022-12-12T08:43:13.108Z,100370.03
2022-12-12T08:45:41.245Z,100369.91
2022-12-12T08:48:09.628Z,100377.31
2022-12-12T08:50:37.178Z,100371.59
2022-12-12T08:53:06.095Z,100382.88
2022-12-12T08:55:33.903Z,100379.59
2022-12-12T08:58:01.626Z,100382.94
2022-12-12T09:00:29.127Z,100380.84
2022-12-12T09:02:56.740Z,100383.53
2022-12-12T09:05:24.328Z,100386.59
2022-12-12T09:07:51.914Z,100398.78
2022-12-12T09:10:20.956Z,100386.41
2022-12-12T09:12:49.105Z,100385.56
2022-12-12T09:15:18.421Z,100390.25
2022-12-12T09:17:46.945Z,100398.09
2022-12-12T09:20:14.675Z,100397.34
2022-12-12T09:22:42.217Z,100399.19
2022-12-12T09:25:10.831Z,100403.66
2022-12-12T09:27:40.086Z,100401.03
2022-12-12T09:30:09.042Z,100401.81
2022-12-12T09:32:36.732Z,100407.16
2022-12-12T09:35:04.461Z,100409.88
2022-12-12T09:37:32.017Z,100407.88
2022-12-12T09:39:59.528Z,100418.13
2022-12-12T09:42:29.201Z,100417.41
2022-12-12T09:45:00.781Z,100422.16
2022-12-12T09:47:34.714Z,100417.75
2022-12-12T09:50:08.416Z,100419.94
2022-12-12T09:52:39.664Z,100418.16
2022-12-12T09:55:24.213Z,100420.44
2022-12-12T09:57:56.464Z,100421.56
2022-12-12T10:00:25.850Z,100417.78
2022-12-12T10:03:07.418Z,100416.03
2022-12-12T10:05:39.099Z,100414.13
2022-12-12T10:08:12.883Z,100414.66
2022-12-12T10:10:43.000Z,100411.44
2022-12-12T10:13:15.718Z,100398.94
2022-12-12T10:15:46.726Z,100403.31
2022-12-12T10:18:17.380Z,100398.66
2022-12-12T10:20:48.563Z,100404.03
2022-12-12T10:23:20.838Z,100407.84
2022-12-12T10:25:51.427Z,100405.44
2022-12-12T10:28:20.480Z,100404.03
2022-12-12T10:31:04.446Z,100402.03
2022-12-12T10:33:41.213Z,100406.06
2022-12-12T10:36:15.784Z,100413.75
2022-12-12T10:38:56.807Z,100404.78
2022-12-12T10:41:28.389Z,100407.84
2022-12-12T10:44:05.091Z,100416.69
2022-12-12T10:46:37.340Z,100408.81
2022-12-12T10:49:14.259Z,100419.41
2022-12-12T10:51:41.973Z,100423.69
2022-12-12T10:54:15.957Z,100411.59
2022-12-12T10:57:06.308Z,100404.91
2022-12-12T10:59:40.339Z,100404.91
2022-12-12T11:02:32.079Z,100404.22
2022-12-12T11:05:08.198Z,100400.66
2022-12-12T11:07:38.235Z,100409.97
2022-12-12T11:10:20.004Z,100402.13
2022-12-12T11:12:47.572Z,100403.34
2022-12-12T11:15:18.032Z,100397.16
2022-12-12T11:17:46.945Z,100402.13
2022-12-12T11:20:17.721Z,100391.25
2022-12-12T11:22:45.399Z,100398.81
2022-12-12T11:25:24.654Z,100403.25
2022-12-12T11:27:52.469Z,100400.06
2022-12-12T11:30:24.593Z,100398.97
2022-12-12T11:32:55.496Z,100399.53
2022-12-12T11:35:25.262Z,100396.97
2022-12-12T11:37:55.684Z,100391.72
2022-12-12T11:40:25.569Z,100399.22
2022-12-12T11:42:53.356Z,100389.19
2022-12-12T11:45:23.558Z,100391.53
2022-12-12T11:47:51.210Z,100397.91
2022-12-12T11:50:22.697Z,100395.91
2022-12-12T11:52:51.240Z,100394.66
2022-12-12T11:55:25.004Z,100394.19
2022-12-12T11:58:09.247Z,100391.59
2022-12-12T12:00:41.872Z,100378.69
2022-12-12T12:03:23.889Z,100387.06
2022-12-12T12:06:17.591Z,100382.78
2022-12-12T12:08:59.839Z,100376.75
2022-12-12T12:11:31.053Z,100377.75
2022-12-12T12:14:08.796Z,100380.75
2022-12-12T12:16:46.786Z,100380.13
2022-12-12T12:19:17.529Z,100376.59
2022-12-12T12:21:55.329Z,100370.78
2022-12-12T12:24:36.282Z,100376.72
2022-12-12T12:27:09.836Z,100378.53
2022-12-12T12:29:49.192Z,100365.06
2022-12-12T12:32:23.009Z,100358.19
2022-12-12T12:35:01.912Z,100364.53
2022-12-12T12:37:40.752Z,100366.59
2022-12-12T12:40:17.894Z,100363.16
2022-12-12T12:42:55.745Z,100361.09
2022-12-12T12:45:29.603Z,100362.75
2022-12-12T12:48:00.108Z,100365.50
2022-12-12T12:50:30.548Z,100364.53
2022-12-12T12:53:02.535Z,100368.81
2022-12-12T12:55:33.526Z,100361.66
2022-12-12T12:58:02.229Z,100358.31
2022-12-12T13:00:31.755Z,100353.59
2022-12-12T13:03:02.083Z,100354.44
2022-12-12T13:05:34.824Z,100355.00
2022-12-12T13:08:10.309Z,100348.34
2022-12-12T13:10:41.506Z,100357.78
2022-12-12T13:13:14.549Z,100350.03
2022-12-12T13:15:44.630Z,100358.19
2022-12-12T13:18:14.452Z,100354.72
2022-12-12T13:20:43.950Z,100347.66
2022-12-12T13:23:38.031Z,100354.13
2022-12-12T13:26:10.528Z,100348.84
2022-12-12T13:28:41.713Z,100355.06
2022-12-12T13:31:35.998Z,100355.13
2022-12-12T13:34:06.165Z,100351.84
2022-12-12T13:36:36.486Z,100355.31
2022-12-12T13:39:07.280Z,100358.59
2022-12-12T13:42:05.180Z,100361.16
2022-12-12T13:44:38.987Z,100357.16
2022-12-12T13:47:13.189Z,100353.31
2022-12-12T13:49:49.416Z,100356.25
2022-12-12T13:52:25.303Z,100347.53
2022-12-12T13:54:56.623Z,100361.69
2022-12-12T13:57:30.027Z,100358.28
2022-12-12T14:00:27.927Z,100363.91
2022-12-12T14:03:02.498Z,100360.00
2022-12-12T14:05:33.091Z,100356.91
2022-12-12T14:08:05.958Z,100364.06
2022-12-12T14:10:37.241Z,100360.00
2022-12-12T14:13:28.700Z,100360.91
2022-12-12T14:16:05.985Z,100357.69
2022-12-12T14:18:38.282Z,100357.56
2022-12-12T14:21:08.577Z,100365.31
2022-12-12T14:23:37.158Z,100363.78
2022-12-12T14:29:28.796Z,100361.88
2022-12-12T14:32:08.886Z,100366.41
2022-12-12T14:34:41.198Z,100365.06
2022-12-12T14:37:34.154Z,100363.66
2022-12-12T14:40:04.969Z,100365.91
2022-12-12T14:43:21.116Z,100367.53
2022-12-12T14:45:37.596Z,100366.75
2022-12-12T14:48:27.148Z,100367.81
2022-12-12T14:51:01.119Z,100376.44
2022-12-12T14:53:32.839Z,100367.00
2022-12-12T14:56:02.922Z,100370.47
2022-12-12T14:58:32.054Z,100365.22
2022-12-12T15:01:03.810Z,100370.13
2022-12-12T15:03:34.961Z,100363.94
2022-12-12T15:06:22.473Z,100367.19
2022-12-12T15:08:50.205Z,100360.31
2022-12-12T15:11:19.387Z,100361.88
2022-12-12T15:13:54.503Z,100362.00
2022-12-12T15:16:31.470Z,100364.59
2022-12-12T15:18:59.916Z,100364.81
2022-12-12T15:21:27.423Z,100370.31
2022-12-12T15:23:54.933Z,100372.44
2022-12-12T15:26:27.754Z,100369.81
2022-12-12T15:28:55.289Z,100366.06
2022-12-12T15:31:25.557Z,100367.53
2022-12-12T15:33:53.357Z,100370.00
2022-12-12T15:36:30.093Z,100368.91
2022-12-12T15:39:07.901Z,100374.69
2022-12-12T15:41:35.487Z,100373.50
2022-12-12T15:44:06.286Z,100377.22
2022-12-12T15:46:38.232Z,100378.69
2022-12-12T15:49:07.533Z,100383.38
2022-12-12T15:51:35.188Z,100384.06
2022-12-12T15:54:11.689Z,100381.22
2022-12-12T15:56:42.561Z,100386.13
2022-12-12T15:59:17.918Z,100389.63
2022-12-12T16:01:52.960Z,100382.75
2022-12-12T16:04:27.888Z,100378.34
2022-12-12T16:07:17.540Z,100371.41
2022-12-12T16:10:03.330Z,100374.41
2022-12-12T16:12:56.845Z,100379.13
2022-12-12T16:15:31.558Z,100376.78
2022-12-12T16:18:32.199Z,100379.41
2022-12-12T16:21:05.068Z,100385.16
2022-12-12T16:23:42.606Z,100379.38
2022-12-12T16:26:11.301Z,100377.28
2022-12-12T16:28:39.125Z,100380.16
2022-12-12T16:31:13.275Z,100379.63
2022-12-12T16:33:43.088Z,100381.28
2022-12-12T16:36:17.491Z,100380.84
2022-12-12T16:38:45.229Z,100375.03
2022-12-12T16:41:19.092Z,100375.72
2022-12-12T16:43:48.995Z,100382.47
2022-12-12T16:46:23.773Z,100391.69
2022-12-12T16:48:55.773Z,100384.91
2022-12-12T16:51:30.531Z,100389.88
2022-12-12T16:54:09.414Z,100387.78
2022-12-12T16:56:39.946Z,100388.34
2022-12-12T16:59:09.106Z,100392.13
2022-12-12T17:01:38.957Z,100398.34
2022-12-12T17:04:18.647Z,100397.84
2022-12-12T17:06:46.311Z,100409.66
2022-12-12T17:09:16.577Z,100406.31
2022-12-12T17:11:44.372Z,100407.53
2022-12-12T17:14:29.124Z,100409.91
2022-12-12T17:16:58.295Z,100419.94
2022-12-12T17:19:34.930Z,100403.06
2022-12-12T17:22:07.325Z,100418.06
2022-12-12T17:24:37.578Z,100408.34
2022-12-12T17:27:05.353Z,100407.66
2022-12-12T17:29:33.275Z,100406.47
2022-12-12T17:32:03.911Z,100407.41
2022-12-12T17:34:59.233Z,100410.47
2022-12-12T17:38:19.229Z,100410.09
2022-12-12T17:40:26.263Z,100410.72
2022-12-12T17:43:06.355Z,100403.44
2022-12-12T17:45:48.724Z,100402.00
2022-12-12T17:48:27.842Z,100403.91
2022-12-12T17:51:21.119Z,100396.94
2022-12-12T17:53:51.101Z,100399.56
2022-12-12T17:56:22.850Z,100403.47
2022-12-12T17:58:53.219Z,100404.94
2022-12-12T18:01:23.544Z,100406.13
2022-12-12T18:03:51.915Z,100407.19
2022-12-12T18:06:22.686Z,100399.03
2022-12-12T18:08:51.248Z,100395.22
2022-12-12T18:11:21.216Z,100401.88
2022-12-12T18:13:51.470Z,100410.44
2022-12-12T18:16:23.766Z,100402.59
2022-12-12T18:18:51.643Z,100406.88
2022-12-12T18:24:09.797Z,100416.41
2022-12-12T18:26:37.472Z,100405.94
2022-12-12T18:29:06.797Z,100412.00
2022-12-12T18:31:35.249Z,100412.56
2022-12-12T18:34:05.092Z,100411.66
2022-12-12T18:36:34.117Z,100406.41
2022-12-12T18:39:02.989Z,100416.66
2022-12-12T18:41:31.593Z,100411.19
2022-12-12T18:43:59.471Z,100415.56
2022-12-12T18:46:27.701Z,100413.53
2022-12-12T18:48:55.414Z,100416.16
2022-12-12T18:51:24.216Z,100420.91
2022-12-12T18:53:55.176Z,100425.16
2022-12-12T18:56:25.020Z,100430.50
2022-12-12T18:58:55.622Z,100429.81
2022-12-12T19:01:25.585Z,100425.28
2022-12-12T19:03:56.301Z,100434.91
2022-12-12T19:06:31.669Z,100424.31
2022-12-12T19:09:04.422Z,100425.13
2022-12-12T19:11:40.784Z,100424.44
2022-12-12T19:14:11.465Z,100423.94
2022-12-12T19:16:39.308Z,100425.81
2022-12-12T19:19:09.318Z,100432.13
2022-12-12T19:21:41.483Z,100435.47
2022-12-12T19:24:12.325Z,100432.34
2022-12-12T19:26:58.317Z,100430.94
2022-12-12T19:29:26.307Z,100428.19
2022-12-12T19:31:58.858Z,100420.94
2022-12-12T19:34:42.291Z,100412.75
2022-12-12T19:37:15.310Z,100421.16
2022-12-12T19:39:45.888Z,100423.66
2022-12-12T19:42:27.381Z,100416.06
2022-12-12T19:44:58.117Z,100414.97
2022-12-12T19:47:27.328Z,100430.31
2022-12-12T19:49:59.479Z,100431.97
2022-12-12T19:52:43.240Z,100417.13
2022-12-12T19:55:26.811Z,100421.75
2022-12-12T19:58:25.342Z,100425.00
2022-12-12T20:00:57.937Z,100425.25
2022-12-12T20:03:27.732Z,100425.25
2022-12-12T20:06:00.201Z,100418.38
2022-12-12T20:08:36.585Z,100428.63
2022-12-12T20:11:09.723Z,100428.59
2022-12-12T20:13:38.259Z,100426.13
2022-12-12T20:16:09.072Z,100427.44
2022-12-12T20:18:40.029Z,100432.75
2022-12-12T20:21:43.481Z,100433.81
2022-12-12T20:24:39.954Z,100437.97
2022-12-12T20:27:00.411Z,100425.47
2022-12-12T20:29:28.743Z,100433.53
2022-12-12T20:31:56.512Z,100426.25
2022-12-12T20:34:25.022Z,100430.56
2022-12-12T20:37:01.747Z,100435.03
2022-12-12T20:39:29.403Z,100434.53
2022-12-12T20:41:57.790Z,100435.91
2022-12-12T20:44:28.948Z,100439.25
2022-12-12T20:46:56.581Z,100434.25
2022-12-12T20:49:28.553Z,100445.97
2022-12-12T20:51:57.614Z,100437.09
2022-12-12T20:54:26.481Z,100436.75
2022-12-12T20:56:54.496Z,100427.13
2022-12-12T20:59:22.292Z,100435.28
2022-12-12T21:01:51.543Z,100430.69
2022-12-12T21:04:19.397Z,100429.03
2022-12-12T21:06:49.643Z,100427.34
2022-12-12T21:09:24.198Z,100419.88
2022-12-12T21:11:52.509Z,100421.47
2022-12-12T21:14:20.214Z,100421.78
2022-12-12T21:16:48.078Z,100418.69
2022-12-12T21:19:18.784Z,100422.69
2022-12-12T21:21:47.070Z,100423.81
2022-12-12T21:24:16.130Z,100433.53
2022-12-12T21:26:48.707Z,100424.22
2022-12-12T21:29:17.423Z,100429.34
2022-12-12T21:31:51.993Z,100436.34
2022-12-12T21:34:23.053Z,100427.25
2022-12-12T21:36:52.979Z,100431.03
2022-12-12T21:39:22.253Z,100423.53
2022-12-12T21:41:51.574Z,100422.28
2022-12-12T21:44:19.841Z,100427.47
2022-12-12T21:46:47.711Z,100418.97
2022-12-12T21:49:26.160Z,100423.75
2022-12-12T21:51:56.683Z,100418.00
2022-12-12T21:54:24.736Z,100413.94
2022-12-12T21:56:52.717Z,100411.25
2022-12-12T21:59:20.350Z,100416.66
2022-12-12T22:01:48.207Z,100395.81
2022-12-12T22:04:19.883Z,100399.81
2022-12-12T22:06:47.632Z,100410.31
2022-12-12T22:09:16.748Z,100420.22
2022-12-12T22:11:49.118Z,100413.56
2022-12-12T22:14:20.156Z,100413.03
2022-12-12T22:16:48.031Z,100408.25
2022-12-12T22:19:16.716Z,100414.59
2022-12-12T22:21:45.827Z,100406.47
2022-12-12T22:24:13.627Z,100406.78
2022-12-12T22:26:44.033Z,100399.19
2022-12-12T22:29:13.577Z,100394.19
2022-12-12T22:31:41.956Z,100409.59
2022-12-12T22:34:13.363Z,100402.84
2022-12-12T22:36:41.597Z,100409.19
2022-12-12T22:39:13.617Z,100407.72
2022-12-12T22:41:42.657Z,100406.69
2022-12-12T22:44:14.148Z,100406.88
2022-12-12T22:46:44.064Z,100402.00
2022-12-12T22:49:13.301Z,100404.38
2022-12-12T22:51:41.128Z,100408.56
2022-12-12T22:54:08.808Z,100401.69
2022-12-12T22:56:37.686Z,100399.41
2022-12-12T22:59:07.353Z,100403.69
2022-12-12T23:01:35.294Z,100397.94
2022-12-12T23:04:03.178Z,100398.66
2022-12-12T23:06:32.622Z,100389.63
2022-12-12T23:09:01.414Z,100390.94
2022-12-12T23:11:30.854Z,100390.75
2022-12-12T23:14:01.292Z,100395.19
2022-12-12T23:16:30.901Z,100401.88
2022-12-12T23:18:59.886Z,100393.34
2022-12-12T23:21:27.870Z,100395.31
2022-12-12T23:23:55.973Z,100393.75
2022-12-12T23:26:25.753Z,100396.91
2022-12-12T23:28:53.572Z,100396.91
2022-12-12T23:31:22.814Z,100390.19
2022-12-12T23:33:54.907Z,100382.69
2022-12-12T23:36:22.646Z,100388.75
2022-12-12T23:38:50.265Z,100390.41
2022-12-12T23:41:17.841Z,100385.19
2022-12-12T23:43:45.494Z,100374.28
2022-12-12T23:46:28.118Z,100375.41
2022-12-12T23:48:58.661Z,100373.63
2022-12-12T23:51:27.640Z,100374.88
2022-12-12T23:53:56.368Z,100380.50
2022-12-12T23:56:23.958Z,100377.88
2022-12-12T23:58:52.627Z,100386.66
